createdAt,value
2023-01-13T00:01:31.805Z,100096.69
2023-01-13T00:04:01.089Z,100094.16
2023-01-13T00:06:30.975Z,100096.41
2023-01-13T00:08:59.441Z,100090.41
2023-01-13T00:11:27.869Z,100097.84
2023-01-13T00:13:56.378Z,100105.66
2023-01-13T00:16:24.547Z,100102.78
2023-01-13T00:18:52.967Z,100103.69
2023-01-13T00:21:23.174Z,100087.81
2023-01-13T00:23:55.155Z,100090.63
2023-01-13T00:26:26.607Z,100097.44
2023-01-13T00:28:58.995Z,100091.78
2023-01-13T00:31:28.740Z,100087.59
2023-01-13T00:33:58.441Z,100106.41
2023-01-13T00:36:27.063Z,100107.44
2023-01-13T00:38:56.607Z,100105.38
2023-01-13T00:41:26.889Z,100098.13
2023-01-13T00:43:54.360Z,100092.19
2023-01-13T00:46:24.065Z,100079.50
2023-01-13T00:48:53.024Z,100082.09
2023-01-13T00:51:22.880Z,100076.22
2023-01-13T00:53:52.976Z,100070.16
2023-01-13T00:56:39.156Z,100080.94
2023-01-13T00:59:09.536Z,100073.31
2023-01-13T01:01:38.071Z,100096.34
2023-01-13T01:04:06.775Z,100089.06
2023-01-13T01:06:35.451Z,100084.19
2023-01-13T01:09:04.161Z,100082.88
2023-01-13T01:11:35.022Z,100086.44
2023-01-13T01:14:05.176Z,100077.22
2023-01-13T01:16:35.339Z,100078.72
2023-01-13T01:19:05.225Z,100071.22
2023-01-13T01:21:36.741Z,100054.66
2023-01-13T01:24:06.273Z,100056.91
2023-01-13T01:26:36.121Z,100059.38
2023-01-13T01:29:04.602Z,100061.88
2023-01-13T01:31:33.596Z,100053.69
2023-01-13T01:34:03.295Z,100064.03
2023-01-13T01:36:31.979Z,100052.97
2023-01-13T01:39:01.210Z,100054.69
2023-01-13T01:41:32.037Z,100036.75
2023-01-13T01:44:07.291Z,100040.94
2023-01-13T01:46:38.187Z,100040.31
2023-01-13T01:49:19.116Z,100032.53
2023-01-13T01:51:51.344Z,100055.59
2023-01-13T01:54:25.921Z,100037.69
2023-01-13T01:56:54.726Z,100042.84
2023-01-13T01:59:30.020Z,100042.59
2023-01-13T02:01:58.601Z,100033.34
2023-01-13T02:04:29.832Z,100038.88
2023-01-13T02:06:59.268Z,100021.38
2023-01-13T02:09:29.154Z,100022.34
2023-01-13T02:12:15.222Z,100027.84
2023-01-13T02:14:45.926Z,100020.41
2023-01-13T02:17:28.571Z,100019.69
2023-01-13T02:20:25.475Z,100007.41
2023-01-13T02:23:46.695Z,100019.72
2023-01-13T02:26:38.136Z,99997.34
2023-01-13T02:29:34.752Z,99992.22
2023-01-13T02:32:13.107Z,99987.81
2023-01-13T02:34:43.699Z,99988.97
2023-01-13T02:37:18.100Z,99995.59
2023-01-13T02:39:56.486Z,100004.00
2023-01-13T02:42:44.407Z,99992.75
2023-01-13T02:45:17.739Z,100000.00
2023-01-13T02:47:50.779Z,100018.78
2023-01-13T02:50:22.065Z,99993.06
2023-01-13T02:52:55.165Z,99991.16
2023-01-13T02:55:28.111Z,100002.47
2023-01-13T02:57:59.838Z,99992.84
2023-01-13T03:00:29.237Z,99981.56
2023-01-13T03:02:59.312Z,99995.06
2023-01-13T03:05:28.611Z,99989.41
2023-01-13T03:08:21.846Z,99990.25
2023-01-13T03:11:04.147Z,100000.09
2023-01-13T03:14:03.034Z,100006.81
2023-01-13T03:16:38.554Z,100000.03
2023-01-13T03:19:17.680Z,99995.34
2023-01-13T03:21:53.586Z,99991.88
2023-01-13T03:24:28.179Z,100003.75
2023-01-13T03:27:03.777Z,99998.22
2023-01-13T03:29:37.649Z,99997.00
2023-01-13T03:32:11.720Z,100006.97
2023-01-13T03:34:47.147Z,99997.75
2023-01-13T03:37:18.141Z,99989.56
2023-01-13T03:39:51.603Z,99990.66
2023-01-13T03:42:24.625Z,99978.72
2023-01-13T03:44:57.954Z,99984.09
2023-01-13T03:47:33.147Z,99990.41
2023-01-13T03:50:07.811Z,99991.56
2023-01-13T03:52:41.758Z,99980.19
2023-01-13T03:55:14.161Z,99994.19
2023-01-13T03:57:48.911Z,99993.88
2023-01-13T04:00:19.834Z,100005.31
2023-01-13T04:02:54.107Z,99992.59
2023-01-13T04:05:24.867Z,99975.78
2023-01-13T04:08:00.362Z,99984.63
2023-01-13T04:10:32.610Z,99992.38
2023-01-13T04:13:05.115Z,99994.91
2023-01-13T04:15:37.776Z,99988.03
2023-01-13T04:18:18.086Z,99996.19
2023-01-13T04:20:50.114Z,99989.69
2023-01-13T04:23:19.844Z,99989.97
2023-01-13T04:25:49.518Z,99990.00
2023-01-13T04:28:19.349Z,99988.84
2023-01-13T04:30:48.852Z,99980.94
2023-01-13T04:33:19.252Z,99986.13
2023-01-13T04:35:49.416Z,99987.81
2023-01-13T04:38:19.539Z,99980.16
2023-01-13T04:40:48.445Z,99982.63
2023-01-13T04:43:16.904Z,99981.03
2023-01-13T04:45:45.854Z,99969.22
2023-01-13T04:48:14.620Z,99985.59
2023-01-13T04:50:43.119Z,99990.59
2023-01-13T04:53:12.706Z,100002.75
2023-01-13T04:55:41.100Z,99980.56
2023-01-13T04:58:11.183Z,99981.78
2023-01-13T05:00:39.711Z,99987.38
2023-01-13T05:03:08.004Z,99994.88
2023-01-13T05:05:36.201Z,99996.22
2023-01-13T05:08:05.071Z,99993.81
2023-01-13T05:10:34.923Z,100003.38
2023-01-13T05:13:20.568Z,100005.53
2023-01-13T05:16:07.074Z,100008.88
2023-01-13T05:18:35.837Z,100008.19
2023-01-13T05:21:03.997Z,100023.00
2023-01-13T05:23:55.355Z,100004.88
2023-01-13T05:26:25.958Z,100017.09
2023-01-13T05:28:55.926Z,100020.69
2023-01-13T05:31:24.596Z,100018.72
2023-01-13T05:33:53.042Z,100027.44
2023-01-13T05:36:21.197Z,100021.78
2023-01-13T05:38:49.664Z,100023.44
2023-01-13T05:41:36.036Z,100032.38
2023-01-13T05:44:06.869Z,100035.38
2023-01-13T05:46:35.310Z,100043.22
2023-01-13T05:49:03.783Z,100028.97
2023-01-13T05:51:33.091Z,100033.19
2023-01-13T05:54:01.510Z,100026.94
2023-01-13T05:56:29.812Z,100029.25
2023-01-13T05:58:58.277Z,100027.19
2023-01-13T06:01:28.099Z,100026.84
2023-01-13T06:03:57.718Z,100027.34
2023-01-13T06:06:26.373Z,100031.78
2023-01-13T06:08:54.582Z,100008.19
2023-01-13T06:11:22.937Z,100024.31
2023-01-13T06:13:51.419Z,100025.38
2023-01-13T06:16:19.697Z,100037.34
2023-01-13T06:18:49.595Z,100039.78
2023-01-13T06:21:18.054Z,100035.59
2023-01-13T06:23:46.426Z,100020.69
2023-01-13T06:26:15.727Z,100027.34
2023-01-13T06:28:44.210Z,100023.53
2023-01-13T06:31:13.445Z,100024.53
2023-01-13T06:33:46.150Z,100026.22
2023-01-13T06:36:20.092Z,100033.00
2023-01-13T06:38:56.260Z,100024.13
2023-01-13T06:41:39.477Z,100022.94
2023-01-13T06:44:08.184Z,100021.03
2023-01-13T06:46:37.394Z,100000.25
2023-01-13T06:49:05.995Z,100010.56
2023-01-13T06:51:36.235Z,100002.78
2023-01-13T06:54:05.124Z,100002.00
2023-01-13T06:56:33.506Z,100010.22
2023-01-13T06:59:01.992Z,100012.28
2023-01-13T07:01:30.286Z,100009.41
2023-01-13T07:03:58.854Z,100023.00
2023-01-13T07:06:27.193Z,100022.91
2023-01-13T07:08:57.071Z,100020.84
2023-01-13T07:11:25.821Z,99999.88
2023-01-13T07:14:11.425Z,100009.34
2023-01-13T07:16:39.934Z,100026.47
2023-01-13T07:19:08.005Z,100022.38
2023-01-13T07:21:36.314Z,100028.03
2023-01-13T07:24:06.628Z,100014.66
2023-01-13T07:26:35.121Z,100020.03
2023-01-13T07:29:03.283Z,100034.84
2023-01-13T07:31:31.678Z,100039.13
2023-01-13T07:34:00.127Z,100051.63
2023-01-13T07:36:28.240Z,100025.66
2023-01-13T07:38:56.856Z,100036.47
2023-01-13T07:41:44.041Z,100033.69
2023-01-13T07:44:13.054Z,100033.59
2023-01-13T07:46:42.156Z,100028.81
2023-01-13T07:49:10.947Z,100018.69
2023-01-13T07:51:40.170Z,100032.78
2023-01-13T07:54:08.865Z,100029.22
2023-01-13T07:56:38.653Z,100030.44
2023-01-13T07:59:07.169Z,100038.41
2023-01-13T08:01:35.327Z,100038.88
2023-01-13T08:04:03.780Z,100032.69
2023-01-13T08:06:32.322Z,100041.69
2023-01-13T08:09:00.719Z,100050.00
2023-01-13T08:11:29.033Z,100043.78
2023-01-13T08:13:59.195Z,100036.97
2023-01-13T08:16:28.336Z,100035.50
2023-01-13T08:18:57.148Z,100044.28
2023-01-13T08:21:26.232Z,100042.03
2023-01-13T08:23:54.682Z,100039.31
2023-01-13T08:26:22.874Z,100039.97
2023-01-13T08:28:51.421Z,100045.19
2023-01-13T08:31:21.484Z,100043.00
2023-01-13T08:33:52.659Z,100039.59
2023-01-13T08:36:21.284Z,100033.91
2023-01-13T08:38:49.436Z,100031.59
2023-01-13T08:41:38.957Z,100042.19
2023-01-13T08:44:09.281Z,100039.66
2023-01-13T08:46:39.224Z,100027.91
2023-01-13T08:49:07.630Z,100030.19
2023-01-13T08:51:36.094Z,100028.66
2023-01-13T08:54:05.062Z,100028.22
2023-01-13T08:56:35.537Z,100014.41
2023-01-13T08:59:04.550Z,100019.38
2023-01-13T09:01:34.112Z,100022.59
2023-01-13T09:04:04.165Z,100021.97
2023-01-13T09:06:33.246Z,100019.72
2023-01-13T09:09:02.636Z,100020.88
2023-01-13T09:11:52.655Z,100012.47
2023-01-13T09:14:23.082Z,100018.72
2023-01-13T09:16:51.610Z,100017.69
2023-01-13T09:19:21.175Z,100009.31
2023-01-13T09:21:49.930Z,100002.59
2023-01-13T09:24:18.396Z,99996.09
2023-01-13T09:26:46.720Z,99992.63
2023-01-13T09:29:15.409Z,99994.88
2023-01-13T09:31:44.567Z,99996.28
2023-01-13T09:34:33.212Z,99997.69
2023-01-13T09:37:03.718Z,100006.91
2023-01-13T09:39:33.482Z,99983.25
2023-01-13T09:42:26.257Z,99981.06
2023-01-13T09:45:01.862Z,99964.94
2023-01-13T09:47:37.008Z,99978.84
2023-01-13T09:50:19.489Z,99987.59
2023-01-13T09:52:49.612Z,99977.16
2023-01-13T09:55:21.145Z,99982.47
2023-01-13T09:57:49.926Z,99970.56
2023-01-13T10:00:23.487Z,99973.84
2023-01-13T10:03:19.368Z,99971.63
2023-01-13T10:05:56.636Z,99966.25
2023-01-13T10:08:30.061Z,99981.56
2023-01-13T10:11:01.222Z,99974.94
2023-01-13T10:13:31.021Z,99964.44
2023-01-13T10:16:20.001Z,99983.06
2023-01-13T10:19:02.016Z,99974.00
2023-01-13T10:22:09.177Z,99993.19
2023-01-13T10:25:00.126Z,100000.63
2023-01-13T10:27:34.701Z,99990.19
2023-01-13T10:30:14.271Z,99986.44
2023-01-13T10:32:47.625Z,99985.31
2023-01-13T10:35:16.180Z,99985.50
2023-01-13T10:37:58.017Z,99976.53
2023-01-13T10:40:28.067Z,99978.78
2023-01-13T10:43:07.235Z,99969.16
2023-01-13T10:45:35.785Z,99980.56
2023-01-13T10:48:14.123Z,99982.97
2023-01-13T10:50:43.306Z,99990.50
2023-01-13T10:53:20.285Z,99997.19
2023-01-13T10:56:02.949Z,100000.91
2023-01-13T10:58:31.580Z,99987.75
2023-01-13T11:01:03.710Z,100000.03
2023-01-13T11:03:43.118Z,99992.81
2023-01-13T11:06:22.218Z,99993.28
2023-01-13T11:08:55.270Z,99995.97
2023-01-13T11:11:39.890Z,100003.47
2023-01-13T11:14:37.025Z,100000.78
2023-01-13T11:17:15.926Z,100012.00
2023-01-13T11:19:51.462Z,99999.19
2023-01-13T11:22:27.110Z,99996.91
2023-01-13T11:24:59.740Z,100000.69
2023-01-13T11:27:40.187Z,100002.84
2023-01-13T11:30:18.597Z,100003.88
2023-01-13T11:32:54.977Z,100002.91
2023-01-13T11:35:23.662Z,99987.53
2023-01-13T11:37:59.047Z,99986.47
2023-01-13T11:40:34.041Z,99970.16
2023-01-13T11:43:12.415Z,99979.81
2023-01-13T11:45:43.649Z,99990.28
2023-01-13T11:48:16.677Z,99980.84
2023-01-13T11:50:54.054Z,99994.59
2023-01-13T11:53:39.518Z,99993.81
2023-01-13T11:56:25.089Z,100001.81
2023-01-13T11:59:09.979Z,100007.38
2023-01-13T12:02:00.045Z,100007.03
2023-01-13T12:04:36.439Z,100012.16
2023-01-13T12:07:16.550Z,100012.25
2023-01-13T12:10:05.167Z,100019.38
2023-01-13T12:12:49.828Z,100012.16
2023-01-13T12:15:37.530Z,100012.69
2023-01-13T12:18:41.843Z,100000.97
2023-01-13T12:21:27.249Z,100013.06
2023-01-13T12:24:07.299Z,100013.69
2023-01-13T12:26:39.378Z,100021.34
2023-01-13T12:29:13.937Z,100017.94
2023-01-13T12:31:45.238Z,100013.50
2023-01-13T12:34:32.365Z,100013.22
2023-01-13T12:37:10.970Z,100019.75
2023-01-13T12:39:52.700Z,100021.03
2023-01-13T12:42:45.290Z,100024.16
2023-01-13T12:45:25.884Z,100032.66
2023-01-13T12:47:56.452Z,100031.78
2023-01-13T12:51:00.667Z,100039.56
2023-01-13T12:53:38.752Z,100038.22
2023-01-13T12:56:44.693Z,100034.91
2023-01-13T12:59:48.927Z,100035.97
2023-01-13T13:02:35.155Z,100037.25
2023-01-13T13:05:39.921Z,100041.91
2023-01-13T13:08:17.817Z,100034.84
2023-01-13T13:10:58.087Z,100036.09
2023-01-13T13:13:45.233Z,100036.59
2023-01-13T13:16:46.711Z,100035.88
2023-01-13T13:19:48.628Z,100039.72
2023-01-13T13:22:46.051Z,100047.50
2023-01-13T13:25:28.044Z,100041.72
2023-01-13T13:28:09.079Z,100042.63
2023-01-13T13:30:40.601Z,100046.84
2023-01-13T13:33:29.087Z,100043.72
2023-01-13T13:36:07.347Z,100041.41
2023-01-13T13:39:11.630Z,100047.75
2023-01-13T13:42:04.147Z,100044.22
2023-01-13T13:44:59.484Z,100048.28
2023-01-13T13:47:36.885Z,100050.94
2023-01-13T13:50:13.868Z,100054.81
2023-01-13T13:52:51.473Z,100056.53
2023-01-13T13:55:23.986Z,100064.13
2023-01-13T13:57:53.964Z,100056.97
2023-01-13T14:00:26.592Z,100067.22
2023-01-13T14:02:58.480Z,100065.13
2023-01-13T14:05:29.747Z,100069.19
2023-01-13T14:08:03.233Z,100068.91
2023-01-13T14:10:36.146Z,100069.00
2023-01-13T14:13:15.777Z,100065.72
2023-01-13T14:15:45.510Z,100064.00
2023-01-13T14:18:16.990Z,100057.91
2023-01-13T14:20:52.928Z,100070.69
2023-01-13T14:23:28.295Z,100062.13
2023-01-13T14:26:03.851Z,100063.06
2023-01-13T14:28:37.029Z,100054.16
2023-01-13T14:31:06.576Z,100055.72
2023-01-13T14:33:38.866Z,100055.25
2023-01-13T14:36:13.824Z,100047.94
2023-01-13T14:38:43.535Z,100049.50
2023-01-13T14:41:24.278Z,100060.28
2023-01-13T14:43:55.975Z,100050.31
2023-01-13T14:46:25.689Z,100047.97
2023-01-13T14:49:02.055Z,100055.28
2023-01-13T14:51:31.964Z,100058.47
2023-01-13T14:54:00.515Z,100065.72
2023-01-13T14:56:40.627Z,100047.13
2023-01-13T14:59:38.000Z,100053.22
2023-01-13T15:02:48.137Z,100056.50
2023-01-13T15:05:35.508Z,100045.41
2023-01-13T15:08:09.915Z,100059.81
2023-01-13T15:10:46.887Z,100058.00
2023-01-13T15:13:29.790Z,100051.47
2023-01-13T15:16:01.016Z,100065.72
2023-01-13T15:18:29.629Z,100066.50
2023-01-13T15:20:58.026Z,100070.19
2023-01-13T15:23:29.293Z,100072.06
2023-01-13T15:26:00.912Z,100036.03
2023-01-13T15:28:34.389Z,100070.00
2023-01-13T15:31:04.074Z,100065.19
2023-01-13T15:33:32.940Z,100074.34
2023-01-13T15:36:01.994Z,100074.34
2023-01-13T15:38:30.499Z,100070.91
2023-01-13T15:40:58.694Z,100063.88
2023-01-13T15:43:44.605Z,100060.47
2023-01-13T15:46:35.141Z,100072.66
2023-01-13T15:49:10.027Z,100059.63
2023-01-13T15:51:39.049Z,100061.44
2023-01-13T15:54:07.962Z,100080.06
2023-01-13T15:56:38.223Z,100063.38
2023-01-13T15:59:19.263Z,100065.66
2023-01-13T16:01:50.330Z,100065.16
2023-01-13T16:04:20.576Z,100057.22
2023-01-13T16:06:49.227Z,100060.22
2023-01-13T16:09:17.469Z,100056.63
2023-01-13T16:11:46.071Z,100052.81
2023-01-13T16:14:14.584Z,100041.69
2023-01-13T16:16:43.181Z,100047.06
2023-01-13T16:19:14.207Z,100032.94
2023-01-13T16:21:42.995Z,100029.50
2023-01-13T16:24:11.724Z,100019.38
2023-01-13T16:26:40.501Z,100032.69
2023-01-13T16:29:09.678Z,100042.94
2023-01-13T16:31:38.291Z,100033.06
2023-01-13T16:34:07.238Z,100039.59
2023-01-13T16:36:39.489Z,100053.91
2023-01-13T16:39:21.527Z,100044.34
2023-01-13T16:41:50.648Z,100046.63
2023-01-13T16:44:19.184Z,100044.50
2023-01-13T16:46:50.403Z,100039.22
2023-01-13T16:49:19.017Z,100041.22
2023-01-13T16:51:48.904Z,100044.47
2023-01-13T16:54:17.699Z,100036.59
2023-01-13T16:56:46.329Z,100043.72
2023-01-13T16:59:17.133Z,100036.78
2023-01-13T17:01:46.379Z,100035.28
2023-01-13T17:04:17.967Z,100030.75
2023-01-13T17:06:57.866Z,100036.59
2023-01-13T17:09:31.414Z,100036.72
2023-01-13T17:12:00.096Z,100028.25
2023-01-13T17:14:28.318Z,100025.09
2023-01-13T17:16:58.283Z,100028.00
2023-01-13T17:19:28.921Z,100023.91
2023-01-13T17:21:59.216Z,100015.50
2023-01-13T17:24:31.089Z,100019.16
2023-01-13T17:26:59.879Z,100024.50
2023-01-13T17:29:33.039Z,100036.72
2023-01-13T17:32:08.148Z,100038.28
2023-01-13T17:34:40.361Z,100033.88
2023-01-13T17:37:15.742Z,100040.53
2023-01-13T17:39:49.157Z,100038.78
2023-01-13T17:42:18.336Z,100035.97
2023-01-13T17:44:50.590Z,100043.88
2023-01-13T17:47:19.290Z,100045.22
2023-01-13T17:49:47.636Z,100050.84
2023-01-13T17:52:17.561Z,100045.84
2023-01-13T17:54:46.272Z,100037.06
2023-01-13T17:57:14.783Z,100049.75
2023-01-13T17:59:43.322Z,100047.16
2023-01-13T18:02:12.921Z,100057.13
2023-01-13T18:04:42.112Z,100048.91
2023-01-13T18:07:10.633Z,100055.06
2023-01-13T18:09:40.404Z,100046.94
2023-01-13T18:12:09.805Z,100044.03
2023-01-13T18:14:39.421Z,100043.94
2023-01-13T18:17:09.024Z,100043.56
2023-01-13T18:19:55.979Z,100057.13
2023-01-13T18:22:42.069Z,100043.81
2023-01-13T18:25:31.441Z,100049.81
2023-01-13T18:28:01.711Z,100046.78
2023-01-13T18:30:30.604Z,100053.25
2023-01-13T18:32:59.491Z,100048.13
2023-01-13T18:35:29.705Z,100052.72
2023-01-13T18:37:59.815Z,100040.47
2023-01-13T18:40:30.119Z,100052.03
2023-01-13T18:42:59.469Z,100050.25
2023-01-13T18:45:30.248Z,100050.91
2023-01-13T18:48:01.395Z,100041.63
2023-01-13T18:50:31.275Z,100036.34
2023-01-13T18:53:00.547Z,100035.59
2023-01-13T18:55:30.809Z,100030.78
2023-01-13T18:57:59.551Z,100036.50
2023-01-13T19:00:29.173Z,100045.69
2023-01-13T19:05:36.231Z,100054.53
2023-01-13T19:08:05.892Z,100055.66
2023-01-13T19:10:36.871Z,100040.28
2023-01-13T19:13:05.769Z,100054.16
2023-01-13T19:15:37.432Z,100052.34
2023-01-13T19:18:06.309Z,100052.91
2023-01-13T19:20:34.907Z,100046.19
2023-01-13T19:23:03.733Z,100047.19
2023-01-13T19:25:33.208Z,100048.25
2023-01-13T19:28:03.730Z,100049.09
2023-01-13T19:30:32.719Z,100046.94
2023-01-13T19:33:01.404Z,100049.19
2023-01-13T19:35:29.664Z,100048.00
2023-01-13T19:37:58.646Z,100043.91
2023-01-13T19:40:27.237Z,100042.13
2023-01-13T19:43:13.617Z,100043.66
2023-01-13T19:45:45.125Z,100035.13
2023-01-13T19:48:16.529Z,100053.25
2023-01-13T19:50:45.599Z,100035.25
2023-01-13T19:53:18.473Z,100058.19
2023-01-13T19:55:49.482Z,100054.66
2023-01-13T19:58:20.123Z,100066.13
2023-01-13T20:00:52.946Z,100051.19
2023-01-13T20:03:25.589Z,100065.06
2023-01-13T20:06:07.651Z,100055.88
2023-01-13T20:08:37.158Z,100056.19
2023-01-13T20:11:31.042Z,100062.69
2023-01-13T20:14:01.761Z,100058.28
2023-01-13T20:16:34.333Z,100058.56
2023-01-13T20:19:05.020Z,100053.41
2023-01-13T20:21:37.144Z,100060.63
2023-01-13T20:24:19.892Z,100044.75
2023-01-13T20:26:51.089Z,100062.00
2023-01-13T20:29:20.661Z,100059.28
2023-01-13T20:31:52.041Z,100050.31
2023-01-13T20:34:24.795Z,100056.44
2023-01-13T20:36:59.741Z,100059.34
2023-01-13T20:39:29.824Z,100054.03
2023-01-13T20:42:16.268Z,100061.50
2023-01-13T20:44:46.953Z,100057.16
2023-01-13T20:47:18.759Z,100052.53
2023-01-13T20:49:47.496Z,100054.19
2023-01-13T20:52:17.283Z,100025.50
2023-01-13T20:54:46.738Z,100067.09
2023-01-13T20:57:16.492Z,100060.31
2023-01-13T20:59:45.515Z,100066.31
2023-01-13T21:02:25.679Z,100063.78
2023-01-13T21:04:55.342Z,100041.50
2023-01-13T21:07:24.600Z,100064.63
2023-01-13T21:10:03.413Z,100053.03
2023-01-13T21:12:52.023Z,100022.78
2023-01-13T21:15:22.379Z,100048.38
2023-01-13T21:18:10.994Z,100047.06
2023-01-13T21:20:46.655Z,100057.03
2023-01-13T21:23:19.240Z,100044.91
2023-01-13T21:25:49.583Z,100034.28
2023-01-13T21:28:28.263Z,100032.94
2023-01-13T21:30:57.203Z,100044.75
2023-01-13T21:33:48.698Z,100047.28
2023-01-13T21:36:18.450Z,100029.53
2023-01-13T21:38:52.910Z,100037.09
2023-01-13T21:41:36.089Z,100045.16
2023-01-13T21:44:22.242Z,100047.56
2023-01-13T21:47:08.658Z,100049.19
2023-01-13T21:49:44.443Z,100039.03
2023-01-13T21:52:13.901Z,100036.53
2023-01-13T21:54:57.180Z,100017.03
2023-01-13T21:57:27.802Z,100023.31
2023-01-13T22:00:02.514Z,100027.56
2023-01-13T22:02:36.323Z,100022.56
2023-01-13T22:05:09.649Z,100027.22
2023-01-13T22:07:40.136Z,100026.84
2023-01-13T22:10:12.633Z,100024.31
2023-01-13T22:12:43.574Z,100021.72
2023-01-13T22:15:15.336Z,100036.56
2023-01-13T22:17:45.957Z,100039.59
2023-01-13T22:20:17.175Z,100028.25
2023-01-13T22:22:46.740Z,100036.09
2023-01-13T22:25:20.342Z,100045.94
2023-01-13T22:27:49.790Z,100034.03
2023-01-13T22:30:22.203Z,100036.66
2023-01-13T22:32:51.877Z,100035.19
2023-01-13T22:35:25.024Z,100036.59
2023-01-13T22:37:54.428Z,100038.38
2023-01-13T22:40:23.565Z,100035.69
2023-01-13T22:42:52.782Z,100028.31
2023-01-13T22:45:22.070Z,100027.63
2023-01-13T22:47:51.228Z,100030.22
2023-01-13T22:50:23.271Z,100036.47
2023-01-13T22:52:53.319Z,100034.38
2023-01-13T22:55:23.290Z,100035.06
2023-01-13T22:57:53.131Z,100019.63
2023-01-13T23:00:25.401Z,100038.16
2023-01-13T23:02:55.523Z,100043.00
2023-01-13T23:05:28.452Z,100041.88
2023-01-13T23:07:59.645Z,100048.63
2023-01-13T23:10:29.126Z,100029.44
2023-01-13T23:12:57.890Z,100035.91
2023-01-13T23:15:26.777Z,100032.78
2023-01-13T23:17:55.608Z,100042.19
2023-01-13T23:20:25.933Z,100035.16
2023-01-13T23:22:55.183Z,100035.06
2023-01-13T23:25:24.339Z,100032.03
2023-01-13T23:27:53.261Z,100032.25
2023-01-13T23:30:22.226Z,100029.56
2023-01-13T23:32:51.083Z,100030.13
2023-01-13T23:35:20.261Z,100028.41
2023-01-13T23:37:50.656Z,100037.44
2023-01-13T23:40:19.892Z,100041.13
2023-01-13T23:42:49.130Z,100042.53
2023-01-13T23:45:18.579Z,100038.22
2023-01-13T23:47:47.398Z,100030.78
2023-01-13T23:50:16.291Z,100029.72
2023-01-13T23:52:45.064Z,100024.38
2023-01-13T23:55:15.571Z,100025.25
2023-01-13T23:57:44.486Z,100026.84
